createdAt,value
2022-08-22T00:01:35.927Z,4.93
2022-08-22T00:02:42.423Z,3.53
2022-08-22T00:02:44.326Z,4.55
2022-08-22T00:02:54.108Z,6.25
2022-08-22T00:04:24.324Z,5.15
2022-08-22T00:07:19.750Z,4.00
2022-08-22T00:10:20.318Z,4.60
2022-08-22T00:13:07.861Z,5.13
2022-08-22T00:15:47.457Z,5.60
2022-08-22T00:18:38.124Z,5.10
2022-08-22T00:21:16.769Z,5.15
2022-08-22T00:23:53.688Z,4.60
2022-08-22T00:26:43.309Z,4.88
2022-08-22T00:29:24.406Z,5.60
2022-08-22T00:32:06.718Z,4.88
2022-08-22T00:34:44.724Z,5.53
2022-08-22T00:37:32.383Z,5.63
2022-08-22T00:40:43.466Z,5.30
2022-08-22T00:43:09.955Z,5.30
2022-08-22T00:46:30.192Z,5.07
2022-08-22T00:49:35.690Z,5.30
2022-08-22T00:52:28.047Z,5.57
2022-08-22T00:55:09.624Z,5.38
2022-08-22T00:58:06.560Z,5.88
2022-08-22T01:00:56.062Z,5.43
2022-08-22T01:03:43.845Z,6.05
2022-08-22T01:07:23.749Z,5.78
2022-08-22T01:10:58.576Z,5.72
2022-08-22T01:14:34.827Z,5.15
2022-08-22T01:17:54.709Z,5.82
2022-08-22T01:20:39.885Z,5.60
2022-08-22T01:23:15.407Z,6.00
2022-08-22T01:26:11.885Z,5.35
2022-08-22T01:29:00.334Z,6.32
2022-08-22T01:31:59.919Z,5.95
2022-08-22T01:34:54.252Z,5.93
2022-08-22T01:37:33.041Z,5.63
2022-08-22T01:40:37.619Z,6.32
2022-08-22T01:44:37.935Z,6.85
2022-08-22T01:47:25.289Z,6.32
2022-08-22T01:50:02.567Z,7.15
2022-08-22T01:52:41.105Z,7.15
2022-08-22T01:55:34.150Z,7.13
2022-08-22T01:58:24.619Z,7.00
2022-08-22T02:01:06.643Z,7.55
2022-08-22T02:03:58.068Z,8.00
2022-08-22T02:06:45.867Z,8.25
2022-08-22T02:09:53.868Z,7.22
2022-08-22T02:12:37.395Z,7.88
2022-08-22T02:15:51.219Z,8.07
2022-08-22T02:18:27.983Z,8.07
2022-08-22T02:21:11.983Z,8.10
2022-08-22T02:23:55.953Z,8.00
2022-08-22T02:26:44.718Z,7.32
2022-08-22T02:29:18.887Z,7.55
2022-08-22T02:32:19.327Z,8.35
2022-08-22T02:35:13.268Z,8.35
2022-08-22T02:38:38.950Z,7.43
2022-08-22T02:41:48.704Z,8.23
2022-08-22T02:44:36.375Z,7.38
2022-08-22T02:47:10.651Z,7.75
2022-08-22T02:50:03.268Z,7.55
2022-08-22T02:53:07.180Z,7.38
2022-08-22T02:55:52.397Z,7.50
2022-08-22T02:58:40.861Z,7.30
2022-08-22T03:01:25.243Z,7.38
2022-08-22T03:04:12.945Z,7.90
2022-08-22T03:07:00.035Z,7.20
2022-08-22T03:09:36.696Z,6.72
2022-08-22T03:12:34.197Z,7.20
2022-08-22T03:15:06.802Z,7.45
2022-08-22T03:17:48.284Z,7.57
2022-08-22T03:20:42.708Z,6.57
2022-08-22T03:23:33.361Z,7.07
2022-08-22T03:26:30.706Z,7.10
2022-08-22T03:29:09.666Z,7.20
2022-08-22T03:31:36.663Z,8.00
2022-08-22T03:34:25.006Z,7.43
2022-08-22T03:37:17.810Z,8.07
2022-08-22T03:40:01.145Z,8.25
2022-08-22T03:42:49.084Z,7.90
2022-08-22T03:45:59.808Z,8.25
2022-08-22T03:48:45.584Z,7.63
2022-08-22T03:51:38.537Z,7.85
2022-08-22T03:54:20.943Z,7.90
2022-08-22T03:57:09.133Z,8.18
2022-08-22T04:00:06.963Z,8.00
2022-08-22T04:03:21.205Z,9.13
2022-08-22T04:06:12.642Z,8.32
2022-08-22T04:09:17.042Z,7.97
2022-08-22T04:12:14.511Z,9.02
2022-08-22T04:14:47.520Z,8.75
2022-08-22T04:17:29.030Z,9.63
2022-08-22T04:20:13.076Z,9.43
2022-08-22T04:23:41.045Z,8.77
2022-08-22T04:26:17.173Z,8.93
2022-08-22T04:28:58.545Z,9.13
2022-08-22T04:31:32.526Z,8.98
2022-08-22T04:34:18.224Z,9.15
2022-08-22T04:36:55.392Z,9.18
2022-08-22T04:39:45.556Z,8.52
2022-08-22T04:42:32.632Z,7.97
2022-08-22T04:45:13.307Z,7.20
2022-08-22T04:48:12.966Z,8.05
2022-08-22T04:50:55.014Z,8.35
2022-08-22T04:53:38.568Z,7.55
2022-08-22T04:56:22.348Z,8.20
2022-08-22T04:58:59.241Z,7.75
2022-08-22T05:01:37.378Z,8.68
2022-08-22T05:04:29.969Z,7.90
2022-08-22T05:07:10.455Z,7.40
2022-08-22T05:09:40.894Z,7.32
2022-08-22T05:12:14.465Z,8.18
2022-08-22T05:14:58.314Z,7.78
2022-08-22T05:17:29.315Z,7.40
2022-08-22T05:20:03.072Z,7.93
2022-08-22T05:22:36.883Z,7.72
2022-08-22T05:25:11.023Z,8.32
2022-08-22T05:27:49.296Z,7.82
2022-08-22T05:30:28.286Z,8.52
2022-08-22T05:33:15.039Z,9.25
2022-08-22T05:35:54.544Z,8.27
2022-08-22T05:38:31.481Z,8.68
2022-08-22T05:41:10.051Z,9.18
2022-08-22T05:43:44.004Z,8.15
2022-08-22T05:46:40.397Z,7.97
2022-08-22T05:49:30.689Z,8.55
2022-08-22T05:52:38.672Z,7.82
2022-08-22T05:55:28.091Z,7.57
2022-08-22T05:58:39.831Z,7.78
2022-08-22T06:01:42.320Z,7.38
2022-08-22T06:04:45.283Z,6.65
2022-08-22T06:07:33.830Z,7.47
2022-08-22T06:10:06.751Z,6.57
2022-08-22T06:12:43.698Z,6.57
2022-08-22T06:15:29.437Z,6.10
2022-08-22T06:18:26.454Z,6.70
2022-08-22T06:21:02.373Z,6.30
2022-08-22T06:23:47.120Z,6.22
2022-08-22T06:26:20.371Z,5.97
2022-08-22T06:28:55.367Z,5.80
2022-08-22T06:31:31.023Z,5.65
2022-08-22T06:34:08.127Z,5.82
2022-08-22T06:36:39.486Z,5.57
2022-08-22T06:39:24.089Z,6.00
2022-08-22T06:42:02.333Z,5.65
2022-08-22T06:44:38.355Z,5.40
2022-08-22T06:47:14.936Z,5.38
2022-08-22T06:49:45.675Z,5.18
2022-08-22T06:52:23.322Z,5.15
2022-08-22T06:55:00.337Z,4.43
2022-08-22T06:57:50.495Z,5.70
2022-08-22T07:00:18.849Z,4.50
2022-08-22T07:03:07.609Z,4.78
2022-08-22T07:05:41.543Z,4.95
2022-08-22T07:08:19.660Z,4.90
2022-08-22T07:11:13.748Z,4.53
2022-08-22T07:13:51.569Z,4.30
2022-08-22T07:16:31.535Z,3.55
2022-08-22T07:18:58.763Z,4.03
2022-08-22T07:21:43.603Z,4.00
2022-08-22T07:24:22.036Z,3.72
2022-08-22T07:27:28.211Z,3.58
2022-08-22T07:30:10.201Z,3.85
2022-08-22T07:32:43.347Z,3.10
2022-08-22T07:35:19.787Z,3.55
2022-08-22T07:38:21.393Z,3.60
2022-08-22T07:41:13.056Z,3.47
2022-08-22T07:43:51.662Z,2.58
2022-08-22T07:46:57.989Z,3.20
2022-08-22T07:49:35.943Z,2.70
2022-08-22T07:52:09.732Z,3.38
2022-08-22T07:54:52.839Z,3.03
2022-08-22T07:57:27.585Z,2.90
2022-08-22T07:59:58.132Z,2.80
2022-08-22T08:02:26.539Z,3.05
2022-08-22T08:04:57.235Z,3.10
2022-08-22T08:07:29.056Z,2.35
2022-08-22T08:10:04.992Z,2.97
2022-08-22T08:12:41.527Z,3.20
2022-08-22T08:15:17.147Z,3.00
2022-08-22T08:17:46.087Z,2.60
2022-08-22T08:20:17.531Z,3.03
2022-08-22T08:22:46.115Z,3.20
2022-08-22T08:25:21.528Z,2.83
2022-08-22T08:28:09.843Z,2.85
2022-08-22T08:30:52.964Z,2.72
2022-08-22T08:33:26.679Z,3.10
2022-08-22T08:36:32.951Z,2.22
2022-08-22T08:39:28.580Z,2.45
2022-08-22T08:42:09.306Z,2.38
2022-08-22T08:44:49.523Z,2.00
2022-08-22T08:47:16.129Z,2.10
2022-08-22T08:50:16.512Z,2.50
2022-08-22T08:56:38.264Z,1.92
2022-08-22T08:59:26.939Z,2.45
2022-08-22T09:02:34.822Z,2.28
2022-08-22T09:05:29.586Z,1.65
2022-08-22T09:08:21.140Z,2.00
2022-08-22T09:10:50.906Z,1.83
2022-08-22T09:13:53.143Z,1.77
2022-08-22T09:17:30.380Z,1.83
2022-08-22T09:20:30.899Z,2.03
2022-08-22T09:23:37.754Z,1.63
2022-08-22T09:26:08.586Z,2.00
2022-08-22T09:28:47.614Z,3.10
2022-08-22T09:31:32.906Z,3.10
2022-08-22T09:34:25.604Z,2.35
2022-08-22T09:37:20.417Z,1.92
2022-08-22T09:43:14.089Z,2.33
2022-08-22T09:45:58.532Z,2.30
2022-08-22T09:48:37.918Z,2.05
2022-08-22T09:51:41.062Z,2.03
2022-08-22T09:54:35.854Z,2.33
2022-08-22T09:57:38.775Z,2.03
2022-08-22T10:00:05.284Z,1.92
2022-08-22T10:02:43.845Z,1.65
2022-08-22T10:05:39.503Z,1.60
2022-08-22T10:08:28.782Z,2.00
2022-08-22T10:11:20.423Z,2.63
2022-08-22T10:14:00.814Z,2.33
2022-08-22T10:16:46.654Z,2.67
2022-08-22T10:19:38.149Z,2.25
2022-08-22T10:22:30.240Z,1.80
2022-08-22T10:25:45.711Z,2.38
2022-08-22T10:28:33.532Z,2.22
2022-08-22T10:31:15.227Z,2.22
2022-08-22T10:34:13.272Z,2.50
2022-08-22T10:37:23.862Z,2.33
2022-08-22T10:40:38.925Z,2.63
2022-08-22T10:43:37.391Z,2.05
2022-08-22T10:46:17.201Z,2.13
2022-08-22T10:48:58.163Z,2.10
2022-08-22T10:51:44.687Z,1.42
2022-08-22T10:54:29.350Z,1.80
2022-08-22T10:57:08.158Z,2.17
2022-08-22T10:59:45.092Z,1.60
2022-08-22T11:02:27.509Z,1.80
2022-08-22T11:05:36.278Z,1.40
2022-08-22T11:08:34.811Z,1.38
2022-08-22T11:11:17.574Z,1.70
2022-08-22T11:14:41.777Z,2.30
2022-08-22T11:17:54.111Z,1.85
2022-08-22T11:21:04.526Z,2.10
2022-08-22T11:24:17.381Z,1.60
2022-08-22T11:27:39.568Z,1.67
2022-08-22T11:30:24.017Z,1.90
2022-08-22T11:32:59.587Z,1.45
2022-08-22T11:35:42.884Z,2.30
2022-08-22T11:38:33.045Z,1.42
2022-08-22T11:41:05.405Z,1.48
2022-08-22T11:43:44.277Z,1.77
2022-08-22T11:46:28.160Z,2.30
2022-08-22T11:49:13.717Z,1.50
2022-08-22T11:52:09.722Z,1.50
2022-08-22T11:55:38.434Z,1.70
2022-08-22T11:58:39.513Z,1.58
2022-08-22T12:01:38.459Z,1.38
2022-08-22T12:04:35.869Z,1.38
2022-08-22T12:07:31.235Z,1.88
2022-08-22T12:10:22.248Z,1.60
2022-08-22T12:13:36.774Z,1.30
2022-08-22T12:16:25.264Z,1.55
2022-08-22T12:20:05.767Z,2.00
2022-08-22T12:22:50.040Z,1.55
2022-08-22T12:25:26.326Z,1.88
2022-08-22T12:28:23.327Z,2.20
2022-08-22T12:31:16.283Z,1.77
2022-08-22T12:34:01.512Z,1.50
2022-08-22T12:36:53.091Z,1.88
2022-08-22T12:40:16.759Z,1.63
2022-08-22T12:42:59.542Z,1.83
2022-08-22T12:45:44.351Z,1.83
2022-08-22T12:48:47.710Z,2.13
2022-08-22T12:51:30.864Z,1.83
2022-08-22T12:54:36.122Z,1.85
2022-08-22T12:57:54.201Z,1.65
2022-08-22T13:00:35.705Z,1.55
2022-08-22T13:03:43.517Z,1.92
2022-08-22T13:06:35.251Z,2.05
2022-08-22T13:09:09.816Z,1.83
2022-08-22T13:11:41.492Z,2.80
2022-08-22T13:14:16.750Z,2.13
2022-08-22T13:16:51.849Z,2.15
2022-08-22T13:19:32.359Z,2.05
2022-08-22T13:22:09.781Z,2.08
2022-08-22T13:24:51.663Z,1.70
2022-08-22T13:27:27.111Z,2.13
2022-08-22T13:30:12.336Z,1.58
2022-08-22T13:32:48.634Z,1.85
2022-08-22T13:35:27.121Z,2.03
2022-08-22T13:38:12.337Z,1.40
2022-08-22T13:40:44.688Z,2.03
2022-08-22T13:43:23.872Z,1.50
2022-08-22T13:45:57.990Z,1.90
2022-08-22T13:49:00.829Z,1.67
2022-08-22T13:51:40.150Z,1.73
2022-08-22T13:54:10.793Z,1.90
2022-08-22T13:57:30.760Z,1.83
2022-08-22T14:00:13.204Z,1.58
2022-08-22T14:03:15.039Z,1.40
2022-08-22T14:05:51.271Z,1.30
2022-08-22T14:08:25.883Z,1.48
2022-08-22T14:11:08.314Z,1.30
2022-08-22T14:14:01.099Z,1.40
2022-08-22T14:16:37.195Z,1.45
2022-08-22T14:19:14.428Z,1.27
2022-08-22T14:21:53.387Z,1.35
2022-08-22T14:24:45.578Z,1.38
2022-08-22T14:27:57.602Z,1.35
2022-08-22T14:30:54.414Z,1.75
2022-08-22T14:33:35.664Z,1.30
2022-08-22T14:36:14.292Z,1.38
2022-08-22T14:39:11.797Z,1.33
2022-08-22T14:41:55.677Z,1.38
2022-08-22T14:44:44.027Z,1.30
2022-08-22T14:48:14.185Z,1.30
2022-08-22T14:50:43.367Z,1.40
2022-08-22T14:53:24.930Z,1.30
2022-08-22T14:56:15.639Z,1.20
2022-08-22T14:59:08.917Z,1.52
2022-08-22T15:02:01.424Z,1.17
2022-08-22T15:04:42.369Z,1.20
2022-08-22T15:07:10.605Z,1.33
2022-08-22T15:09:50.553Z,1.42
2022-08-22T15:12:30.788Z,1.55
2022-08-22T15:15:02.491Z,1.75
2022-08-22T15:17:54.767Z,1.23
2022-08-22T15:20:38.193Z,1.35
2022-08-22T15:23:23.013Z,1.70
2022-08-22T15:26:13.430Z,1.40
2022-08-22T15:28:53.091Z,1.50
2022-08-22T15:31:21.137Z,1.60
2022-08-22T15:33:49.750Z,1.50
2022-08-22T15:36:24.489Z,1.50
2022-08-22T15:39:18.365Z,1.30
2022-08-22T15:41:48.426Z,1.20
2022-08-22T15:44:32.233Z,1.20
2022-08-22T15:47:39.384Z,1.77
2022-08-22T15:50:27.208Z,2.15
2022-08-22T15:53:18.979Z,1.90
2022-08-22T15:56:11.367Z,1.30
2022-08-22T15:58:48.833Z,1.70
2022-08-22T16:01:24.951Z,1.50
2022-08-22T16:04:06.518Z,1.55
2022-08-22T16:07:18.693Z,1.70
2022-08-22T16:09:50.681Z,1.27
2022-08-22T16:12:47.744Z,1.70
2022-08-22T16:15:51.534Z,1.33
2022-08-22T16:18:35.567Z,1.50
2022-08-22T16:21:23.848Z,2.15
2022-08-22T16:23:50.843Z,1.90
2022-08-22T16:26:30.646Z,8.77
2022-08-22T16:29:17.530Z,3.88
2022-08-22T16:31:44.753Z,3.53
2022-08-22T16:34:20.564Z,3.72
2022-08-22T16:37:08.411Z,2.67
2022-08-22T16:40:14.539Z,1.65
2022-08-22T16:42:49.067Z,3.08
2022-08-22T16:45:24.632Z,1.75
2022-08-22T16:47:58.620Z,2.40
2022-08-22T16:50:33.527Z,1.80
2022-08-22T16:53:05.464Z,6.53
2022-08-22T16:55:34.300Z,2.15
2022-08-22T16:58:13.106Z,2.78
2022-08-22T17:01:07.534Z,2.10
2022-08-22T17:04:06.135Z,2.20
2022-08-22T17:07:18.831Z,2.78
2022-08-22T17:10:01.105Z,1.98
2022-08-22T17:13:06.485Z,2.30
2022-08-22T17:16:20.452Z,2.17
2022-08-22T17:19:39.308Z,2.10
2022-08-22T17:22:32.785Z,2.25
2022-08-22T17:25:50.816Z,2.55
2022-08-22T17:28:33.536Z,2.08
2022-08-22T17:31:12.985Z,2.28
2022-08-22T17:34:38.826Z,2.40
2022-08-22T17:37:31.832Z,1.95
2022-08-22T17:40:22.569Z,2.47
2022-08-22T17:43:09.906Z,2.47
2022-08-22T17:46:30.885Z,2.67
2022-08-22T17:49:29.858Z,2.40
2022-08-22T17:52:25.537Z,2.00
2022-08-22T17:55:18.549Z,2.17
2022-08-22T17:57:57.453Z,2.60
2022-08-22T18:00:33.148Z,2.65
2022-08-22T18:03:36.925Z,2.92
2022-08-22T18:06:16.272Z,2.40
2022-08-22T18:09:18.315Z,2.22
2022-08-22T18:11:52.076Z,2.00
2022-08-22T18:14:37.618Z,2.90
2022-08-22T18:17:34.763Z,2.13
2022-08-22T18:20:08.012Z,2.22
2022-08-22T18:23:21.825Z,1.88
2022-08-22T18:26:33.871Z,2.38
2022-08-22T18:29:18.612Z,1.95
2022-08-22T18:32:17.409Z,2.33
2022-08-22T18:35:10.108Z,2.30
2022-08-22T18:37:37.105Z,2.50
2022-08-22T18:40:23.250Z,2.00
2022-08-22T18:43:03.523Z,1.85
2022-08-22T18:45:48.490Z,2.58
2022-08-22T18:49:05.422Z,2.13
2022-08-22T18:51:38.280Z,3.55
2022-08-22T18:54:05.123Z,3.30
2022-08-22T18:56:31.601Z,2.83
2022-08-22T18:59:13.610Z,2.30
2022-08-22T19:01:56.466Z,2.00
2022-08-22T19:05:01.428Z,2.83
2022-08-22T19:08:08.589Z,2.65
2022-08-22T19:11:08.664Z,2.40
2022-08-22T19:14:22.417Z,2.22
2022-08-22T19:17:00.961Z,2.58
2022-08-22T19:20:08.045Z,2.00
2022-08-22T19:22:36.868Z,2.13
2022-08-22T19:25:27.172Z,2.97
2022-08-22T19:27:56.931Z,2.72
2022-08-22T19:30:44.189Z,2.33
2022-08-22T19:33:27.726Z,2.78
2022-08-22T19:36:11.949Z,2.70
2022-08-22T19:39:09.129Z,1.90
2022-08-22T19:41:54.041Z,2.53
2022-08-22T19:44:20.550Z,4.63
2022-08-22T19:47:18.868Z,2.45
2022-08-22T19:50:07.856Z,2.55
2022-08-22T19:53:31.035Z,2.15
2022-08-22T19:56:44.870Z,1.83
2022-08-22T19:59:50.925Z,2.15
2022-08-22T20:02:37.054Z,2.35
2022-08-22T20:05:20.603Z,1.90
2022-08-22T20:08:18.611Z,1.95
2022-08-22T20:11:13.684Z,1.80
2022-08-22T20:13:40.744Z,1.90
2022-08-22T20:16:24.193Z,2.13
2022-08-22T20:19:05.987Z,2.80
2022-08-22T20:21:39.298Z,2.60
2022-08-22T20:24:29.711Z,1.88
2022-08-22T20:27:13.249Z,1.95
2022-08-22T20:29:51.442Z,2.25
2022-08-22T20:32:21.420Z,2.30
2022-08-22T20:34:54.867Z,2.22
2022-08-22T20:37:45.530Z,1.70
2022-08-22T20:40:56.944Z,1.80
2022-08-22T20:43:31.072Z,2.33
2022-08-22T20:46:26.205Z,2.42
2022-08-22T20:48:55.787Z,2.03
2022-08-22T20:51:30.702Z,2.08
2022-08-22T20:54:02.072Z,2.10
2022-08-22T20:56:53.081Z,2.08
2022-08-22T20:59:27.405Z,1.98
2022-08-22T21:02:20.205Z,1.70
2022-08-22T21:04:52.924Z,2.10
2022-08-22T21:07:33.595Z,2.08
2022-08-22T21:10:45.384Z,1.73
2022-08-22T21:13:24.309Z,2.10
2022-08-22T21:15:58.015Z,1.58
2022-08-22T21:18:24.596Z,2.05
2022-08-22T21:20:51.308Z,1.90
2022-08-22T21:23:19.447Z,2.15
2022-08-22T21:26:02.319Z,1.65
2022-08-22T21:28:38.075Z,2.17
2022-08-22T21:31:16.499Z,2.55
2022-08-22T21:33:47.001Z,1.85
2022-08-22T21:36:20.491Z,1.85
2022-08-22T21:38:57.370Z,2.05
2022-08-22T21:41:42.103Z,1.80
2022-08-22T21:44:30.580Z,1.75
2022-08-22T21:47:19.360Z,1.80
2022-08-22T21:50:12.516Z,1.95
2022-08-22T21:52:44.185Z,2.42
2022-08-22T21:55:29.559Z,1.98
2022-08-22T21:58:34.903Z,2.40
2022-08-22T22:01:24.977Z,2.05
2022-08-22T22:03:52.078Z,1.73
2022-08-22T22:06:18.927Z,1.88
2022-08-22T22:08:45.544Z,2.22
2022-08-22T22:11:15.136Z,2.15
2022-08-22T22:13:42.676Z,3.58
2022-08-22T22:16:12.112Z,2.50
2022-08-22T22:18:40.475Z,2.95
2022-08-22T22:21:07.683Z,2.80
2022-08-22T22:23:34.341Z,2.72
2022-08-22T22:26:05.471Z,3.35
2022-08-22T22:28:37.988Z,2.15
2022-08-22T22:31:05.713Z,3.28
2022-08-22T22:33:40.018Z,4.18
2022-08-22T22:36:14.852Z,2.35
2022-08-22T22:38:41.926Z,3.40
2022-08-22T22:41:08.723Z,2.65
2022-08-22T22:43:35.501Z,2.42
2022-08-22T22:46:02.287Z,3.05
2022-08-22T22:48:29.260Z,2.17
2022-08-22T22:50:55.896Z,2.60
2022-08-22T22:53:33.630Z,2.28
2022-08-22T22:56:09.360Z,2.03
2022-08-22T22:58:37.327Z,1.95
2022-08-22T23:01:20.997Z,2.03
2022-08-22T23:03:52.117Z,1.85
2022-08-22T23:06:23.050Z,2.53
2022-08-22T23:08:51.107Z,2.50
2022-08-22T23:11:30.241Z,2.13
2022-08-22T23:13:57.372Z,2.00
2022-08-22T23:16:32.033Z,2.40
2022-08-22T23:19:09.219Z,2.10
2022-08-22T23:21:35.905Z,2.60
2022-08-22T23:24:02.724Z,2.40
2022-08-22T23:26:29.642Z,2.50
2022-08-22T23:28:57.249Z,2.17
2022-08-22T23:31:50.357Z,2.17
2022-08-22T23:34:24.141Z,2.10
2022-08-22T23:36:54.675Z,2.10
2022-08-22T23:39:24.809Z,1.98
2022-08-22T23:41:52.125Z,2.20
2022-08-22T23:44:22.680Z,2.15
2022-08-22T23:46:50.069Z,2.20
2022-08-22T23:49:17.731Z,1.95
2022-08-22T23:51:46.404Z,2.20
2022-08-22T23:54:13.730Z,2.50
2022-08-22T23:56:47.320Z,2.55
2022-08-22T23:59:18.636Z,2.10
